Terminal Aerodrome Forecast
Issued by NWS Spokane, WA

Home | Current Version | Previous Version | Text Only | Print | Product List | Glossary On
Versions: 1 2 3 4 5 6 7 8 9 10 11 12 13 14 15 16 17 18 19 20 21 22 23 24 25 26 27 28 29 30 31
498
FTUS46 KOTX 082325
TAFGEG
TAF
KGEG 082325Z 0900/0924 05005KT P6SM BKN200
     FM091000 03003KT 6SM BR SCT003 SCT200
     FM091400 03006KT 1SM BR OVC002
     FM092100 06006KT P6SM BKN250=

USA.gov is the U.S. government's official web portal to all federal, state and local government web resources and services.